Time;durP1;ratioP1;P1;durP2;ratioP2;P2;SDS_P1;SDS_P2;PMS_P1;PMS_P2;Temp;Humidity;BMP_temperature;BMP_pressure;BME280_temperature;BME280_humidity;BME280_pressure;Samples;Min_cycle;Max_cycle;Signal;HPM_P1;HPM_P2
2023/01/24 00:01:09;;;;;;;2.83;1.58;;;;;;;;;;20913962;28;20045;-60
2023/01/24 00:11:22;;;;;;;2.58;1.58;;;;;;;;;;20914815;28;20081;-61
2023/01/24 00:21:27;;;;;;;5.63;3.07;;;;;;;;;;20921649;28;20052;-64
2023/01/24 00:31:34;;;;;;;3.88;2.10;;;;;;;;;;20933153;28;20103;-60
2023/01/24 00:41:39;;;;;;;9.00;2.63;;;;;;;;;;20933459;28;20497;-60
2023/01/24 00:51:43;;;;;;;6.70;3.28;;;;;;;;;;20931577;28;20417;-61
2023/01/24 01:01:46;;;;;;;7.45;3.40;;;;;;;;;;20929903;28;20049;-61
2023/01/24 01:11:48;;;;;;;6.32;3.80;;;;;;;;;;20929612;28;20049;-60
2023/01/24 01:21:52;;;;;;;7.88;3.78;;;;;;;;;;20928459;28;20099;-62
2023/01/24 01:31:54;;;;;;;7.30;3.50;;;;;;;;;;20927943;28;20413;-63
2023/01/24 01:41:58;;;;;;;6.10;3.10;;;;;;;;;;20915452;28;20144;-67
2023/01/24 01:52:04;;;;;;;9.02;4.38;;;;;;;;;;20928499;28;20123;-64
2023/01/24 02:02:08;;;;;;;4.13;2.70;;;;;;;;;;20927741;28;20401;-65
2023/01/24 02:12:13;;;;;;;6.73;3.17;;;;;;;;;;20925363;28;20053;-65
2023/01/24 02:22:30;;;;;;;3.27;1.93;;;;;;;;;;20932454;28;20132;-65
2023/01/24 02:32:34;;;;;;;3.75;2.13;;;;;;;;;;20943068;28;20045;-63
2023/01/24 02:42:40;;;;;;;;;;;;;;;;;;20942911;28;20110;-65
2023/01/24 03:03:10;;;;;;;2.77;1.70;;;;;;;;;;20920905;28;20049;-64
2023/01/24 03:44:17;;;;;;;4.25;2.53;;;;;;;;;;20917840;28;20064;-63
2023/01/24 03:54:19;;;;;;;5.22;2.80;;;;;;;;;;20921034;28;20044;-61
2023/01/24 04:04:20;;;;;;;5.85;3.00;;;;;;;;;;20924942;28;20481;-65
2023/01/24 04:14:22;;;;;;;5.60;3.67;;;;;;;;;;20921599;28;20059;-76
2023/01/24 04:24:24;;;;;;;5.45;3.10;;;;;;;;;;20914554;28;20456;-64
2023/01/24 04:34:25;;;;;;;18.30;5.55;;;;;;;;;;20914366;28;20099;-65
2023/01/24 04:44:27;;;;;;;5.75;3.00;;;;;;;;;;20914927;28;20390;-65
2023/01/24 04:54:29;;;;;;;5.07;2.85;;;;;;;;;;20914799;28;20045;-65
2023/01/24 05:04:31;;;;;;;5.20;3.47;;;;;;;;;;20914568;28;20048;-63
2023/01/24 05:14:32;;;;;;;9.75;5.53;;;;;;;;;;20924495;28;20048;-66
2023/01/24 05:24:34;;;;;;;5.88;3.10;;;;;;;;;;20932347;28;20052;-66
2023/01/24 05:34:36;;;;;;;8.88;3.50;;;;;;;;;;20926390;28;20064;-63
2023/01/24 05:44:37;;;;;;;5.13;3.00;;;;;;;;;;20928465;28;20056;-68
2023/01/24 05:54:39;;;;;;;7.57;3.10;;;;;;;;;;20931687;28;20052;-65
2023/01/24 06:04:41;;;;;;;7.60;3.95;;;;;;;;;;20929425;28;20132;-64
2023/01/24 06:14:42;;;;;;;6.68;3.85;;;;;;;;;;20931436;28;20077;-65
2023/01/24 06:24:44;;;;;;;6.10;3.95;;;;;;;;;;20929023;28;20048;-68
2023/01/24 06:34:46;;;;;;;8.52;3.67;;;;;;;;;;20928860;28;20119;-65
2023/01/24 06:44:49;;;;;;;7.85;3.90;;;;;;;;;;20934625;28;20083;-66
2023/01/24 06:54:50;;;;;;;6.95;3.30;;;;;;;;;;20933108;28;20486;-65
2023/01/24 07:04:52;;;;;;;5.85;3.10;;;;;;;;;;20934386;28;20049;-66
2023/01/24 07:14:54;;;;;;;5.70;3.03;;;;;;;;;;20937877;28;20059;-66
2023/01/24 07:24:59;;;;;;;9.90;4.38;;;;;;;;;;20931835;28;20061;-66
2023/01/24 07:35:00;;;;;;;6.93;3.90;;;;;;;;;;20930981;28;20045;-63
2023/01/24 07:45:02;;;;;;;8.70;4.22;;;;;;;;;;20926124;28;20076;-63
2023/01/24 07:55:04;;;;;;;8.05;4.00;;;;;;;;;;20926129;28;20049;-65
2023/01/24 08:05:06;;;;;;;6.45;3.65;;;;;;;;;;20928574;28;20059;-64
2023/01/24 08:15:08;;;;;;;8.77;3.88;;;;;;;;;;20931282;28;20045;-67
2023/01/24 08:25:10;;;;;;;8.38;3.72;;;;;;;;;;20929297;28;20053;-61
2023/01/24 08:35:12;;;;;;;7.90;4.57;;;;;;;;;;20933083;28;20496;-63
2023/01/24 08:45:14;;;;;;;5.88;3.10;;;;;;;;;;20922533;28;20083;-64
2023/01/24 08:55:15;;;;;;;6.20;2.97;;;;;;;;;;20943140;28;20041;-64
2023/01/24 09:05:17;;;;;;;6.82;3.10;;;;;;;;;;20944763;28;20543;-65
2023/01/24 09:15:19;;;;;;;3.83;2.75;;;;;;;;;;20941801;28;20045;-63
2023/01/24 09:25:21;;;;;;;10.40;4.72;;;;;;;;;;20939327;28;20045;-64
2023/01/24 09:35:22;;;;;;;8.02;3.58;;;;;;;;;;20952657;28;20041;-59
2023/01/24 09:45:36;;;;;;;4.70;3.10;;;;;;;;;;21021566;28;20098;-62
2023/01/24 09:55:41;;;;;;;4.50;2.83;;;;;;;;;;21020304;28;20493;-63
2023/01/24 10:05:47;;;;;;;4.73;3.10;;;;;;;;;;21024921;28;20429;-68
2023/01/24 10:15:48;;;;;;;9.32;4.00;;;;;;;;;;21026815;28;20052;-63
2023/01/24 10:26:06;;;;;;;7.47;3.20;;;;;;;;;;21017231;28;20122;-67
2023/01/24 10:36:17;;;;;;;5.55;3.05;;;;;;;;;;21024633;28;20052;-66
2023/01/24 10:46:19;;;;;;;6.20;3.00;;;;;;;;;;21025898;28;20048;-73
2023/01/24 10:56:21;;;;;;;6.97;3.95;;;;;;;;;;21027147;28;20048;-71
2023/01/24 11:06:23;;;;;;;5.15;3.08;;;;;;;;;;21022247;28;20059;-71
2023/01/24 11:16:34;;;;;;;4.32;2.53;;;;;;;;;;21013432;28;20048;-63
2023/01/24 11:26:38;;;;;;;4.05;2.72;;;;;;;;;;20986703;28;20063;-64
2023/01/24 11:36:49;;;;;;;4.18;2.45;;;;;;;;;;21006543;28;20052;-65
2023/01/24 11:47:07;;;;;;;5.72;2.78;;;;;;;;;;20983359;28;20052;-65
2023/01/24 11:57:26;;;;;;;5.97;3.08;;;;;;;;;;20977923;28;20044;-63
2023/01/24 12:07:32;;;;;;;7.82;3.60;;;;;;;;;;21000745;28;20109;-68
2023/01/24 12:17:54;;;;;;;6.82;3.25;;;;;;;;;;20997144;28;20416;-65
2023/01/24 12:27:57;;;;;;;3.40;2.47;;;;;;;;;;20982686;28;20075;-72
2023/01/24 12:38:01;;;;;;;4.65;3.05;;;;;;;;;;20999907;28;20049;-62
2023/01/24 12:48:18;;;;;;;4.17;2.53;;;;;;;;;;21000098;28;20516;-60
2023/01/24 12:58:35;;;;;;;2.55;1.80;;;;;;;;;;21002894;28;20485;-65
2023/01/24 13:08:47;;;;;;;3.85;2.13;;;;;;;;;;20996398;28;20044;-68
2023/01/24 13:19:07;;;;;;;3.63;2.35;;;;;;;;;;21002188;28;20045;-60
2023/01/24 13:29:21;;;;;;;2.80;1.75;;;;;;;;;;20997918;28;20079;-60
2023/01/24 13:39:32;;;;;;;2.88;1.92;;;;;;;;;;21011099;28;20078;-61
2023/01/24 13:49:38;;;;;;;3.40;1.65;;;;;;;;;;21011683;28;20045;-60
2023/01/24 13:59:40;;;;;;;;;;;;;;;;;;21010536;28;20058;-59
2023/01/24 14:09:42;;;;;;;2.83;1.70;;;;;;;;;;21010441;28;20376;-62
2023/01/24 14:19:46;;;;;;;2.72;1.75;;;;;;;;;;20990520;28;20473;-61
2023/01/24 14:29:54;;;;;;;2.38;1.60;;;;;;;;;;21006670;28;20117;-59
2023/01/24 14:40:09;;;;;;;4.43;2.17;;;;;;;;;;21009494;28;20052;-67
2023/01/24 14:50:22;;;;;;;2.47;1.90;;;;;;;;;;21009630;28;20462;-69
2023/01/24 15:00:24;;;;;;;2.80;1.90;;;;;;;;;;21010396;28;20785;-60
2023/01/24 15:10:27;;;;;;;2.95;2.05;;;;;;;;;;21009617;28;20617;-60
2023/01/24 15:20:30;;;;;;;3.05;1.98;;;;;;;;;;21009866;28;20123;-68
2023/01/24 15:30:32;;;;;;;4.78;2.33;;;;;;;;;;21005943;28;20048;-61
2023/01/24 15:40:34;;;;;;;3.90;2.22;;;;;;;;;;21002591;28;20481;-64
2023/01/24 16:00:58;;;;;;;3.25;2.00;;;;;;;;;;21005434;28;20048;-62
2023/01/24 16:11:00;;;;;;;3.45;1.83;;;;;;;;;;21001583;28;20049;-62
2023/01/24 16:21:03;;;;;;;3.15;2.10;;;;;;;;;;21004404;28;20145;-66
2023/01/24 16:31:06;;;;;;;4.88;2.25;;;;;;;;;;21001397;28;20400;-62
2023/01/24 16:41:08;;;;;;;5.47;2.70;;;;;;;;;;21001171;28;20053;-66
2023/01/24 16:51:10;;;;;;;3.78;2.42;;;;;;;;;;20961958;28;20052;-73
2023/01/24 17:01:13;;;;;;;4.85;2.35;;;;;;;;;;20994285;28;20075;-62
2023/01/24 17:11:16;;;;;;;3.65;2.13;;;;;;;;;;20991056;28;20194;-67
2023/01/24 17:21:18;;;;;;;9.73;2.22;;;;;;;;;;20977002;28;20048;-71
2023/01/24 17:31:21;;;;;;;4.07;2.70;;;;;;;;;;21003190;28;20057;-69
2023/01/24 17:41:23;;;;;;;4.90;2.40;;;;;;;;;;20999196;28;20049;-64
2023/01/24 17:51:26;;;;;;;5.43;2.28;;;;;;;;;;21010984;28;20083;-72
2023/01/24 18:01:28;;;;;;;4.00;1.92;;;;;;;;;;21012531;28;20179;-69
2023/01/24 18:11:30;;;;;;;4.20;1.95;;;;;;;;;;20996432;28;20134;-67
2023/01/24 18:21:33;;;;;;;4.30;2.22;;;;;;;;;;20994791;28;20098;-63
2023/01/24 18:31:35;;;;;;;4.50;2.58;;;;;;;;;;20967330;28;20113;-64
2023/01/24 18:41:38;;;;;;;4.72;2.80;;;;;;;;;;21005092;28;20053;-62
2023/01/24 18:51:43;;;;;;;3.50;2.30;;;;;;;;;;21004704;28;20098;-65
2023/01/24 19:01:44;;;;;;;5.23;2.47;;;;;;;;;;21004285;28;20045;-62
2023/01/24 19:11:46;;;;;;;5.80;3.10;;;;;;;;;;21012852;28;20070;-70
2023/01/24 19:21:50;;;;;;;4.47;3.05;;;;;;;;;;21012300;28;20102;-66
2023/01/24 19:31:52;;;;;;;4.38;2.72;;;;;;;;;;21000275;28;20084;-63
2023/01/24 19:41:54;;;;;;;5.22;3.38;;;;;;;;;;21000547;28;20106;-66
2023/01/24 19:51:56;;;;;;;4.65;2.88;;;;;;;;;;21003661;28;20051;-64
2023/01/24 20:01:58;;;;;;;4.68;3.00;;;;;;;;;;20998955;28;20146;-65
2023/01/24 20:12:00;;;;;;;6.57;4.43;;;;;;;;;;21002473;28;20109;-69
2023/01/24 20:22:02;;;;;;;6.90;3.10;;;;;;;;;;21006130;28;20068;-65
2023/01/24 20:32:05;;;;;;;5.22;3.30;;;;;;;;;;20998226;28;20083;-65
2023/01/24 20:42:07;;;;;;;4.80;3.63;;;;;;;;;;21000636;28;20057;-65
2023/01/24 20:52:09;;;;;;;6.38;3.30;;;;;;;;;;21015008;28;20416;-64
2023/01/24 21:02:11;;;;;;;6.15;3.75;;;;;;;;;;21013719;28;20098;-65
2023/01/24 21:12:13;;;;;;;6.40;3.78;;;;;;;;;;21012357;28;20048;-66
2023/01/24 21:22:15;;;;;;;5.80;3.67;;;;;;;;;;21011929;28;20052;-65
2023/01/24 21:32:17;;;;;;;5.20;3.33;;;;;;;;;;21013958;28;20056;-64
2023/01/24 21:42:19;;;;;;;7.03;3.33;;;;;;;;;;21005966;28;20053;-62
2023/01/24 21:52:21;;;;;;;5.57;3.25;;;;;;;;;;21014061;28;20090;-64
2023/01/24 22:02:24;;;;;;;6.78;4.18;;;;;;;;;;21014841;28;20052;-63
2023/01/24 22:12:26;;;;;;;5.05;3.40;;;;;;;;;;21006030;28;20059;-64
2023/01/24 22:22:38;;;;;;;4.13;3.17;;;;;;;;;;21005356;28;20048;-66
2023/01/24 22:32:40;;;;;;;6.72;3.53;;;;;;;;;;21007783;28;20064;-62
2023/01/24 22:42:42;;;;;;;4.53;2.90;;;;;;;;;;20962723;28;1204628;-61
2023/01/24 22:52:44;;;;;;;4.85;3.25;;;;;;;;;;21008006;28;20127;-66
2023/01/24 23:02:45;;;;;;;5.25;2.83;;;;;;;;;;21006811;28;20137;-65
2023/01/24 23:23:07;;;;;;;7.75;2.88;;;;;;;;;;21003164;28;20060;-63
2023/01/24 23:33:47;;;;;;;5.78;3.22;;;;;;;;;;21001289;28;20087;-64
2023/01/24 23:43:49;;;;;;;6.55;4.10;;;;;;;;;;20667698;28;20046;-64
2023/01/24 23:53:53;;;;;;;6.60;3.92;;;;;;;;;;20674621;28;20051;-64
